Time;durP1;ratioP1;P1;durP2;ratioP2;P2;SDS_P1;SDS_P2;PMS_P1;PMS_P2;Temp;Humidity;BMP_temperature;BMP_pressure;BME280_temperature;BME280_humidity;BME280_pressure;Samples;Min_cycle;Max_cycle;Signal;HPM_P1;HPM_P2
2021/07/11 00:00:10;;;;;;;6.63;5.65;;;;;;;;;;4992249;28;20051;-76
2021/07/11 00:02:36;;;;;;;8.27;5.65;;;;;;;;;;5007388;28;20039;-77
2021/07/11 00:05:04;;;;;;;9.20;5.35;;;;;;;;;;4990769;28;20481;-76
2021/07/11 00:07:30;;;;;;;6.72;5.53;;;;;;;;;;4990995;28;20026;-77
2021/07/11 00:09:57;;;;;;;9.48;6.10;;;;;;;;;;4992238;28;20139;-76
2021/07/11 00:12:22;;;;;;;7.35;6.45;;;;;;;;;;4992185;28;20483;-77
2021/07/11 00:14:48;;;;;;;7.80;5.97;;;;;;;;;;4990479;28;20030;-76
2021/07/11 00:17:13;;;;;;;17.50;7.07;;;;;;;;;;4991923;28;20096;-77
2021/07/11 00:19:39;;;;;;;7.68;6.30;;;;;;;;;;4992098;28;20030;-76
2021/07/11 00:22:04;;;;;;;11.05;7.43;;;;;;;;;;4990766;28;20611;-76
2021/07/11 00:24:30;;;;;;;11.23;7.30;;;;;;;;;;4991703;28;20022;-76
2021/07/11 00:26:55;;;;;;;7.93;6.22;;;;;;;;;;4991555;28;20497;-76
2021/07/11 00:29:21;;;;;;;13.45;6.50;;;;;;;;;;4991917;28;20149;-75
2021/07/11 00:31:47;;;;;;;8.55;5.93;;;;;;;;;;4990184;28;20057;-76
2021/07/11 00:34:13;;;;;;;8.82;6.00;;;;;;;;;;4991910;28;20026;-75
2021/07/11 00:36:39;;;;;;;7.90;6.78;;;;;;;;;;4991806;28;20089;-76
2021/07/11 00:39:05;;;;;;;8.98;6.35;;;;;;;;;;4991204;28;20430;-76
2021/07/11 00:41:30;;;;;;;7.85;5.88;;;;;;;;;;5006486;28;20026;-76
2021/07/11 00:43:55;;;;;;;8.93;6.20;;;;;;;;;;4991142;28;20551;-75
2021/07/11 00:46:21;;;;;;;6.82;5.88;;;;;;;;;;4991332;28;20030;-75
2021/07/11 00:48:46;;;;;;;7.47;6.03;;;;;;;;;;4991077;28;20058;-76
2021/07/11 00:51:13;;;;;;;12.73;8.10;;;;;;;;;;4991357;28;20437;-76
2021/07/11 00:53:51;;;;;;;10.98;6.68;;;;;;;;;;5006162;28;20057;-78
2021/07/11 00:56:16;;;;;;;8.77;6.97;;;;;;;;;;4989910;28;20467;-76
2021/07/11 00:58:43;;;;;;;8.77;7.25;;;;;;;;;;4990972;28;20065;-76
2021/07/11 01:01:08;;;;;;;10.18;7.03;;;;;;;;;;4990972;28;20026;-76
2021/07/11 01:03:39;;;;;;;8.23;7.07;;;;;;;;;;4989617;28;20037;-76
2021/07/11 01:06:05;;;;;;;12.48;8.07;;;;;;;;;;4989284;28;20042;-76
2021/07/11 01:08:51;;;;;;;10.82;7.95;;;;;;;;;;4989277;28;20508;-75
2021/07/11 01:11:18;;;;;;;9.80;7.75;;;;;;;;;;4991071;28;20076;-76
2021/07/11 01:13:45;;;;;;;9.88;6.95;;;;;;;;;;4990931;28;20034;-76
2021/07/11 01:16:17;;;;;;;11.65;7.05;;;;;;;;;;4990717;28;20509;-77
2021/07/11 01:18:43;;;;;;;9.25;7.32;;;;;;;;;;4990879;28;20220;-76
2021/07/11 01:21:12;;;;;;;11.50;7.93;;;;;;;;;;4989288;28;20125;-76
2021/07/11 01:23:57;;;;;;;12.50;8.00;;;;;;;;;;4990636;28;20518;-76
2021/07/11 01:26:25;;;;;;;16.55;8.07;;;;;;;;;;4990743;28;20034;-76
2021/07/11 01:28:53;;;;;;;11.18;8.40;;;;;;;;;;4989011;28;20044;-77
2021/07/11 01:31:21;;;;;;;13.35;9.38;;;;;;;;;;5021864;28;20060;-76
2021/07/11 01:33:48;;;;;;;11.68;7.70;;;;;;;;;;4988959;28;20030;-75
2021/07/11 01:36:16;;;;;;;13.10;7.78;;;;;;;;;;4990463;28;20356;-77
2021/07/11 01:38:42;;;;;;;10.40;8.10;;;;;;;;;;5021751;28;20030;-76
2021/07/11 01:41:10;;;;;;;11.40;7.75;;;;;;;;;;4990001;28;20033;-76
2021/07/11 01:43:36;;;;;;;8.90;7.78;;;;;;;;;;4990266;28;20059;-76
2021/07/11 01:46:03;;;;;;;13.40;9.20;;;;;;;;;;4990554;28;20029;-76
2021/07/11 01:48:30;;;;;;;10.55;8.60;;;;;;;;;;4990301;28;20037;-76
2021/07/11 01:50:57;;;;;;;14.98;10.35;;;;;;;;;;5005020;28;20394;-76
2021/07/11 01:53:29;;;;;;;11.38;8.88;;;;;;;;;;4988827;28;20030;-76
2021/07/11 01:55:55;;;;;;;11.13;8.07;;;;;;;;;;5021612;28;20030;-76
2021/07/11 01:58:21;;;;;;;13.40;8.27;;;;;;;;;;4989981;28;20023;-76
2021/07/11 02:00:50;;;;;;;11.98;8.45;;;;;;;;;;4988622;28;20022;-76
2021/07/11 02:03:21;;;;;;;13.45;8.88;;;;;;;;;;4990217;28;20064;-76
2021/07/11 02:05:48;;;;;;;13.20;8.50;;;;;;;;;;5021537;28;20062;-76
2021/07/11 02:08:15;;;;;;;12.60;8.27;;;;;;;;;;4990101;28;20038;-76
2021/07/11 02:10:46;;;;;;;10.50;8.43;;;;;;;;;;4990008;28;20033;-76
2021/07/11 02:13:20;;;;;;;14.93;8.93;;;;;;;;;;4990245;28;20034;-76
2021/07/11 02:15:48;;;;;;;10.30;7.90;;;;;;;;;;4990060;28;20034;-75
2021/07/11 02:18:16;;;;;;;13.27;9.25;;;;;;;;;;5004678;28;20426;-76
2021/07/11 02:20:47;;;;;;;18.25;8.63;;;;;;;;;;5004952;28;20022;-76
2021/07/11 02:23:15;;;;;;;13.45;8.63;;;;;;;;;;4989770;28;20057;-76
2021/07/11 02:25:41;;;;;;;9.93;8.23;;;;;;;;;;4989776;28;20030;-76
2021/07/11 02:28:07;;;;;;;13.73;9.27;;;;;;;;;;5004745;28;20478;-76
2021/07/11 02:30:51;;;;;;;12.65;8.40;;;;;;;;;;4990068;28;20061;-76
2021/07/11 02:33:17;;;;;;;19.02;8.25;;;;;;;;;;4990242;28;20022;-76
2021/07/11 02:35:46;;;;;;;13.40;8.30;;;;;;;;;;4988486;28;20118;-76
2021/07/11 02:38:14;;;;;;;11.50;8.45;;;;;;;;;;5004519;28;20026;-76
2021/07/11 02:40:41;;;;;;;11.30;8.75;;;;;;;;;;4989667;28;20045;-76
2021/07/11 02:43:10;;;;;;;13.82;8.95;;;;;;;;;;5004331;28;20100;-75
2021/07/11 02:45:37;;;;;;;11.68;8.55;;;;;;;;;;4991071;28;20095;-75
2021/07/11 02:48:07;;;;;;;12.93;8.98;;;;;;;;;;4993512;28;20030;-76
2021/07/11 02:50:33;;;;;;;14.27;9.13;;;;;;;;;;4992151;28;20026;-76
2021/07/11 02:53:00;;;;;;;12.40;8.90;;;;;;;;;;4992991;28;20084;-76
2021/07/11 02:55:31;;;;;;;15.80;9.35;;;;;;;;;;4993166;28;20030;-75
2021/07/11 02:58:04;;;;;;;13.98;10.02;;;;;;;;;;4993184;28;20025;-76
2021/07/11 03:00:30;;;;;;;15.20;9.82;;;;;;;;;;4991861;28;20045;-77
2021/07/11 03:02:57;;;;;;;15.18;11.02;;;;;;;;;;4992895;28;20034;-76
2021/07/11 03:05:24;;;;;;;16.23;12.10;;;;;;;;;;4991935;28;20132;-76
2021/07/11 03:07:51;;;;;;;15.75;11.35;;;;;;;;;;4992926;28;20113;-77
2021/07/11 03:10:18;;;;;;;14.98;11.00;;;;;;;;;;4991607;28;20034;-76
2021/07/11 03:12:46;;;;;;;18.30;10.80;;;;;;;;;;4991618;28;20153;-77
2021/07/11 03:15:13;;;;;;;16.17;10.98;;;;;;;;;;4991271;28;20304;-76
2021/07/11 03:17:40;;;;;;;17.48;10.25;;;;;;;;;;4991468;28;20084;-76
2021/07/11 03:20:06;;;;;;;16.48;10.95;;;;;;;;;;4992727;28;20026;-75
2021/07/11 03:22:35;;;;;;;16.83;10.38;;;;;;;;;;4992633;28;20029;-76
2021/07/11 03:25:04;;;;;;;12.48;10.35;;;;;;;;;;4992629;28;20502;-76
2021/07/11 03:27:30;;;;;;;14.18;10.05;;;;;;;;;;4992786;28;20038;-76
2021/07/11 03:30:18;;;;;;;15.05;10.30;;;;;;;;;;5007792;28;20394;-76
2021/07/11 03:33:00;;;;;;;16.45;10.13;;;;;;;;;;4992658;28;20113;-76
2021/07/11 03:35:37;;;;;;;13.90;10.00;;;;;;;;;;4992814;28;20029;-76
2021/07/11 03:38:05;;;;;;;15.38;10.30;;;;;;;;;;4992435;28;20034;-75
2021/07/11 03:40:34;;;;;;;13.13;10.00;;;;;;;;;;4991161;28;20544;-74
2021/07/11 03:43:04;;;;;;;13.32;9.65;;;;;;;;;;4992218;28;20025;-75
2021/07/11 03:45:31;;;;;;;19.17;10.50;;;;;;;;;;4992448;28;20433;-76
2021/07/11 03:48:08;;;;;;;12.85;9.98;;;;;;;;;;4992188;28;20033;-76
2021/07/11 03:50:37;;;;;;;13.18;10.18;;;;;;;;;;4992181;28;20026;-76
2021/07/11 03:53:06;;;;;;;25.73;11.32;;;;;;;;;;5023089;28;20475;-76
2021/07/11 03:55:34;;;;;;;12.02;9.60;;;;;;;;;;4991526;28;20405;-76
2021/07/11 03:58:01;;;;;;;13.18;10.30;;;;;;;;;;5006580;28;20445;-76
2021/07/11 04:00:28;;;;;;;18.90;10.43;;;;;;;;;;4992078;28;20086;-76
2021/07/11 04:02:55;;;;;;;13.40;9.68;;;;;;;;;;4992178;28;20439;-76
2021/07/11 04:05:23;;;;;;;14.35;10.60;;;;;;;;;;4990834;28;20030;-76
2021/07/11 04:07:53;;;;;;;14.73;10.57;;;;;;;;;;4992000;28;20030;-75
2021/07/11 04:10:24;;;;;;;14.20;10.45;;;;;;;;;;5023404;28;20022;-76
2021/07/11 04:12:49;;;;;;;10.50;8.98;;;;;;;;;;4992348;28;20038;-76
2021/07/11 04:15:15;;;;;;;12.23;9.65;;;;;;;;;;4990563;28;20034;-75
2021/07/11 04:17:45;;;;;;;11.40;10.00;;;;;;;;;;4991942;28;20038;-76
2021/07/11 04:20:13;;;;;;;12.75;10.43;;;;;;;;;;4991675;28;20038;-76
2021/07/11 04:22:40;;;;;;;21.02;14.02;;;;;;;;;;4991601;28;20105;-75
2021/07/11 04:25:10;;;;;;;12.20;10.25;;;;;;;;;;4991608;28;20038;-76
2021/07/11 04:27:37;;;;;;;19.75;9.95;;;;;;;;;;4991799;28;20034;-75
2021/07/11 04:30:04;;;;;;;12.48;8.85;;;;;;;;;;4991555;28;20081;-76
2021/07/11 04:32:30;;;;;;;10.93;9.68;;;;;;;;;;4991584;28;20026;-77
2021/07/11 04:34:55;;;;;;;13.63;8.48;;;;;;;;;;4991538;28;20037;-76
2021/07/11 04:37:21;;;;;;;12.10;9.38;;;;;;;;;;4991271;28;20038;-76
2021/07/11 04:39:46;;;;;;;15.55;8.90;;;;;;;;;;4991457;28;20022;-75
2021/07/11 04:42:12;;;;;;;13.60;8.50;;;;;;;;;;4991647;28;20029;-76
2021/07/11 04:44:41;;;;;;;9.48;8.20;;;;;;;;;;4991386;28;20416;-76
2021/07/11 04:47:06;;;;;;;10.20;7.97;;;;;;;;;;5005951;28;20037;-76
2021/07/11 04:49:32;;;;;;;10.10;7.57;;;;;;;;;;4989861;28;20026;-76
2021/07/11 04:51:57;;;;;;;9.82;8.10;;;;;;;;;;4991011;28;20463;-73
2021/07/11 04:54:24;;;;;;;12.23;7.13;;;;;;;;;;4989619;28;20049;-75
2021/07/11 04:56:50;;;;;;;9.95;7.90;;;;;;;;;;4991066;28;20042;-76
2021/07/11 04:59:16;;;;;;;10.13;7.05;;;;;;;;;;5005590;28;20730;-75
2021/07/11 05:01:41;;;;;;;11.75;8.65;;;;;;;;;;5005958;28;20022;-75
2021/07/11 05:04:07;;;;;;;9.95;7.53;;;;;;;;;;4990845;28;20475;-75
2021/07/11 05:06:32;;;;;;;10.52;7.95;;;;;;;;;;5022285;28;20394;-75
2021/07/11 05:08:59;;;;;;;9.82;7.25;;;;;;;;;;5005312;28;20069;-76
2021/07/11 05:11:25;;;;;;;12.30;7.75;;;;;;;;;;4990738;28;20479;-76
2021/07/11 05:13:50;;;;;;;8.98;7.15;;;;;;;;;;4990768;28;20083;-76
2021/07/11 05:16:16;;;;;;;11.20;8.07;;;;;;;;;;4990613;28;20608;-76
2021/07/11 05:18:41;;;;;;;11.73;7.72;;;;;;;;;;5005908;28;20026;-76
2021/07/11 05:21:07;;;;;;;11.88;8.65;;;;;;;;;;4988967;28;20188;-76
2021/07/11 05:23:32;;;;;;;18.77;7.63;;;;;;;;;;4990748;28;20103;-76
2021/07/11 05:25:58;;;;;;;10.88;7.78;;;;;;;;;;4990785;28;20107;-76
2021/07/11 05:28:24;;;;;;;10.30;7.05;;;;;;;;;;4990285;28;20045;-76
2021/07/11 05:30:49;;;;;;;11.32;8.27;;;;;;;;;;4990294;28;20034;-77
2021/07/11 05:33:15;;;;;;;9.32;7.28;;;;;;;;;;5021574;28;20034;-76
2021/07/11 05:35:40;;;;;;;9.32;7.00;;;;;;;;;;5005555;28;20372;-76
2021/07/11 05:38:06;;;;;;;8.40;7.50;;;;;;;;;;4990141;28;20109;-77
2021/07/11 05:40:32;;;;;;;9.98;6.63;;;;;;;;;;4990603;28;20030;-76
2021/07/11 05:42:57;;;;;;;13.73;6.80;;;;;;;;;;4990902;28;20463;-76
2021/07/11 05:45:23;;;;;;;10.77;7.35;;;;;;;;;;4990227;28;20085;-76
2021/07/11 05:47:49;;;;;;;7.97;7.07;;;;;;;;;;4990406;28;20040;-77
2021/07/11 05:50:15;;;;;;;9.50;7.18;;;;;;;;;;4988918;28;20033;-77
2021/07/11 05:52:41;;;;;;;13.48;7.13;;;;;;;;;;5005169;28;20045;-77
2021/07/11 05:55:08;;;;;;;9.13;6.10;;;;;;;;;;5004926;28;20085;-76
2021/07/11 05:57:34;;;;;;;11.48;6.82;;;;;;;;;;4990181;28;20030;-77
2021/07/11 06:00:00;;;;;;;7.63;6.53;;;;;;;;;;4989856;28;20046;-76
2021/07/11 06:02:28;;;;;;;9.98;6.78;;;;;;;;;;4989758;28;20026;-75
2021/07/11 06:04:54;;;;;;;11.98;6.90;;;;;;;;;;4989821;28;20026;-75
2021/07/11 06:07:19;;;;;;;8.98;5.95;;;;;;;;;;4988860;28;20061;-77
2021/07/11 06:09:46;;;;;;;9.35;6.75;;;;;;;;;;4990105;28;20041;-77
2021/07/11 06:12:12;;;;;;;8.55;5.93;;;;;;;;;;4989972;28;20121;-76
2021/07/11 06:14:37;;;;;;;8.88;5.82;;;;;;;;;;4990403;28;20165;-78
2021/07/11 06:17:03;;;;;;;10.35;6.13;;;;;;;;;;5004778;28;20049;-76
2021/07/11 06:19:30;;;;;;;10.75;7.70;;;;;;;;;;4989266;28;20042;-76
2021/07/11 06:21:56;;;;;;;6.10;5.35;;;;;;;;;;4989761;28;20029;-76
2021/07/11 06:24:21;;;;;;;8.73;5.40;;;;;;;;;;4989306;28;20034;-76
2021/07/11 06:26:47;;;;;;;10.25;5.88;;;;;;;;;;4990571;28;20034;-77
2021/07/11 06:29:13;;;;;;;11.18;6.57;;;;;;;;;;4989977;28;20030;-76
2021/07/11 06:31:39;;;;;;;7.90;5.78;;;;;;;;;;4990525;28;20035;-76
2021/07/11 06:34:05;;;;;;;8.73;6.10;;;;;;;;;;4990213;28;20062;-77
2021/07/11 06:36:33;;;;;;;8.70;6.03;;;;;;;;;;5004976;28;20034;-77
2021/07/11 06:39:00;;;;;;;7.05;6.35;;;;;;;;;;5004746;28;20391;-78
2021/07/11 06:41:26;;;;;;;6.88;5.93;;;;;;;;;;4989441;28;20045;-77
2021/07/11 06:43:51;;;;;;;8.55;5.60;;;;;;;;;;4989625;28;20035;-77
2021/07/11 06:46:17;;;;;;;7.57;5.95;;;;;;;;;;4989223;28;20046;-76
2021/07/11 06:48:42;;;;;;;6.35;5.72;;;;;;;;;;5020789;28;20030;-76
2021/07/11 06:51:08;;;;;;;7.03;5.75;;;;;;;;;;4989130;28;20026;-76
2021/07/11 06:53:35;;;;;;;9.75;6.38;;;;;;;;;;4989358;28;20157;-76
2021/07/11 06:56:01;;;;;;;6.60;5.43;;;;;;;;;;4987981;28;20030;-76
2021/07/11 06:58:27;;;;;;;11.10;5.60;;;;;;;;;;4987571;28;20069;-77
2021/07/11 07:00:52;;;;;;;5.78;4.88;;;;;;;;;;4989500;28;20045;-76
2021/07/11 07:03:18;;;;;;;9.07;5.63;;;;;;;;;;4989023;28;20028;-77
2021/07/11 07:05:43;;;;;;;7.60;4.90;;;;;;;;;;4989407;28;20530;-75
2021/07/11 07:08:09;;;;;;;7.38;5.93;;;;;;;;;;4989195;28;20389;-76
2021/07/11 07:10:34;;;;;;;6.28;4.75;;;;;;;;;;5020820;28;20456;-76
2021/07/11 07:13:00;;;;;;;5.55;4.90;;;;;;;;;;4988036;28;20150;-77
2021/07/11 07:15:25;;;;;;;6.68;5.35;;;;;;;;;;4989681;28;20113;-76
2021/07/11 07:17:51;;;;;;;8.90;5.20;;;;;;;;;;4989696;28;20323;-77
2021/07/11 07:20:16;;;;;;;8.80;4.90;;;;;;;;;;5020641;28;20146;-76
2021/07/11 07:22:42;;;;;;;4.65;4.22;;;;;;;;;;4989362;28;20227;-75
2021/07/11 07:25:13;;;;;;;6.45;4.63;;;;;;;;;;5004074;28;20023;-76
2021/07/11 07:27:40;;;;;;;6.80;4.70;;;;;;;;;;4989397;28;20088;-76
2021/07/11 07:30:07;;;;;;;5.43;4.90;;;;;;;;;;4989726;28;20030;-77
2021/07/11 07:32:33;;;;;;;7.72;5.82;;;;;;;;;;5024093;28;20045;-77
2021/07/11 07:34:59;;;;;;;7.03;4.63;;;;;;;;;;4991298;28;20452;-77
2021/07/11 07:37:24;;;;;;;9.88;5.85;;;;;;;;;;4992336;28;20034;-77
2021/07/11 07:39:50;;;;;;;5.85;4.85;;;;;;;;;;4991109;28;20022;-77
2021/07/11 07:42:16;;;;;;;7.40;4.88;;;;;;;;;;4992320;28;20556;-76
2021/07/11 07:44:42;;;;;;;7.13;4.70;;;;;;;;;;4992284;28;20026;-77
2021/07/11 07:47:08;;;;;;;5.45;4.68;;;;;;;;;;4991864;28;20506;-77
2021/07/11 07:49:33;;;;;;;5.47;4.80;;;;;;;;;;4992212;28;20105;-77
2021/07/11 07:51:59;;;;;;;6.93;4.60;;;;;;;;;;5023803;28;20350;-77
2021/07/11 07:54:25;;;;;;;6.82;5.25;;;;;;;;;;4992190;28;20498;-77
2021/07/11 07:56:50;;;;;;;6.28;5.03;;;;;;;;;;4992346;28;20027;-77
2021/07/11 07:59:16;;;;;;;7.35;4.22;;;;;;;;;;4991631;28;20064;-76
2021/07/11 08:01:41;;;;;;;5.70;4.85;;;;;;;;;;4992219;28;20594;-76
2021/07/11 08:04:07;;;;;;;7.60;4.82;;;;;;;;;;4991843;28;20113;-77
2021/07/11 08:06:33;;;;;;;5.43;4.93;;;;;;;;;;4990853;28;20033;-76
2021/07/11 08:08:59;;;;;;;5.40;4.90;;;;;;;;;;4991587;28;20077;-75
2021/07/11 08:11:25;;;;;;;8.32;5.88;;;;;;;;;;5006447;28;20491;-77
2021/07/11 08:13:51;;;;;;;6.13;5.53;;;;;;;;;;4990536;28;20036;-76
2021/07/11 08:16:17;;;;;;;12.13;5.45;;;;;;;;;;4990409;28;20038;-77
2021/07/11 08:18:43;;;;;;;7.15;5.00;;;;;;;;;;4991981;28;20022;-76
2021/07/11 08:21:09;;;;;;;10.15;5.53;;;;;;;;;;4991901;28;20034;-77
2021/07/11 08:23:35;;;;;;;6.10;5.22;;;;;;;;;;4990036;28;20490;-77
2021/07/11 08:26:00;;;;;;;7.38;5.10;;;;;;;;;;5023015;28;20018;-77
2021/07/11 08:28:26;;;;;;;6.93;5.50;;;;;;;;;;4991129;28;20057;-79
2021/07/11 08:30:52;;;;;;;9.05;6.15;;;;;;;;;;4989910;28;20039;-77
2021/07/11 08:33:17;;;;;;;6.03;5.50;;;;;;;;;;4990905;28;20018;-75
2021/07/11 08:35:43;;;;;;;12.52;5.53;;;;;;;;;;5006394;28;20095;-77
2021/07/11 08:38:16;;;;;;;8.80;5.70;;;;;;;;;;4991429;28;20034;-79
2021/07/11 08:40:44;;;;;;;7.93;5.05;;;;;;;;;;5005940;28;20049;-76
2021/07/11 08:43:10;;;;;;;8.90;5.50;;;;;;;;;;5021768;28;20370;-75
2021/07/11 08:45:35;;;;;;;7.20;4.80;;;;;;;;;;4990961;28;20515;-76
2021/07/11 08:48:01;;;;;;;6.05;5.45;;;;;;;;;;4991385;28;20030;-76
2021/07/11 08:50:28;;;;;;;6.65;5.90;;;;;;;;;;4989973;28;20084;-77
2021/07/11 08:52:55;;;;;;;9.15;5.93;;;;;;;;;;4990899;28;20022;-77
2021/07/11 08:55:25;;;;;;;7.38;6.07;;;;;;;;;;4989186;28;20490;-76
2021/07/11 08:57:52;;;;;;;8.75;6.00;;;;;;;;;;4991152;28;20380;-77
2021/07/11 09:00:22;;;;;;;7.15;5.50;;;;;;;;;;4990844;28;20049;-77
2021/07/11 09:02:48;;;;;;;7.60;5.70;;;;;;;;;;4991210;28;20027;-77
2021/07/11 09:05:30;;;;;;;6.05;5.45;;;;;;;;;;5005823;28;20037;-77
2021/07/11 09:08:19;;;;;;;12.25;5.45;;;;;;;;;;4990994;28;20026;-78
2021/07/11 09:10:57;;;;;;;6.20;5.43;;;;;;;;;;4990908;28;20030;-75
2021/07/11 09:13:33;;;;;;;9.20;5.30;;;;;;;;;;5021785;28;20084;-76
2021/07/11 09:15:59;;;;;;;9.25;6.45;;;;;;;;;;4989854;28;20060;-77
2021/07/11 09:18:30;;;;;;;9.15;6.07;;;;;;;;;;4989219;28;20022;-77
2021/07/11 09:21:01;;;;;;;6.45;5.53;;;;;;;;;;4991003;28;20026;-77
2021/07/11 09:23:33;;;;;;;7.38;5.95;;;;;;;;;;4990683;28;20030;-77
2021/07/11 09:26:05;;;;;;;7.05;6.03;;;;;;;;;;5005165;28;20483;-77
2021/07/11 09:28:31;;;;;;;;;;;;;;;;;;4989627;28;20065;-76
2021/07/11 09:31:08;;;;;;;7.72;5.90;;;;;;;;;;4990426;28;19956;-77
2021/07/11 09:33:36;;;;;;;6.50;5.88;;;;;;;;;;4990025;28;20109;-77
2021/07/11 09:36:21;;;;;;;6.60;6.00;;;;;;;;;;4989008;28;20026;-77
2021/07/11 09:38:51;;;;;;;8.88;5.40;;;;;;;;;;4990314;28;20522;-77
2021/07/11 09:41:22;;;;;;;8.43;5.75;;;;;;;;;;5005276;28;20145;-76
2021/07/11 09:43:49;;;;;;;8.07;5.80;;;;;;;;;;4990354;28;20394;-76
2021/07/11 09:46:16;;;;;;;9.90;5.70;;;;;;;;;;4990682;28;20046;-76
2021/07/11 09:48:42;;;;;;;8.10;5.78;;;;;;;;;;5021413;28;20022;-77
2021/07/11 09:51:23;;;;;;;6.28;5.57;;;;;;;;;;4990769;28;20109;-76
2021/07/11 09:53:49;;;;;;;5.80;5.10;;;;;;;;;;4988940;28;20026;-77
2021/07/11 09:56:38;;;;;;;7.10;5.43;;;;;;;;;;4989717;28;20034;-77
2021/07/11 09:59:10;;;;;;;8.05;5.90;;;;;;;;;;4989791;28;20089;-77
2021/07/11 10:01:38;;;;;;;7.03;5.25;;;;;;;;;;4990304;28;20026;-76
2021/07/11 10:04:04;;;;;;;9.45;5.45;;;;;;;;;;5004939;28;20042;-76
2021/07/11 10:06:32;;;;;;;5.35;4.90;;;;;;;;;;4988480;28;20053;-76
2021/07/11 10:08:59;;;;;;;11.50;5.85;;;;;;;;;;5020936;28;20585;-77
2021/07/11 10:11:25;;;;;;;6.35;5.75;;;;;;;;;;4989541;28;20498;-77
2021/07/11 10:13:51;;;;;;;7.93;4.90;;;;;;;;;;4988292;28;20038;-76
2021/07/11 10:16:17;;;;;;;5.55;4.43;;;;;;;;;;4989519;28;20034;-76
2021/07/11 10:18:47;;;;;;;8.02;4.90;;;;;;;;;;4989935;28;20077;-76
2021/07/11 10:21:18;;;;;;;6.38;5.15;;;;;;;;;;4989762;28;20482;-77
2021/07/11 10:23:43;;;;;;;5.07;4.38;;;;;;;;;;4988247;28;20041;-77
2021/07/11 10:26:12;;;;;;;7.40;4.18;;;;;;;;;;5004756;28;20022;-76
2021/07/11 10:28:40;;;;;;;9.73;4.72;;;;;;;;;;4989208;28;20336;-77
2021/07/11 10:31:17;;;;;;;6.03;4.68;;;;;;;;;;4989478;28;20030;-79
2021/07/11 10:33:44;;;;;;;6.50;4.85;;;;;;;;;;4989597;28;20120;-77
2021/07/11 10:36:12;;;;;;;6.63;4.85;;;;;;;;;;4988158;28;20030;-75
2021/07/11 10:38:52;;;;;;;4.60;4.05;;;;;;;;;;5003945;28;20088;-77
2021/07/11 10:41:27;;;;;;;6.30;4.82;;;;;;;;;;4987817;28;20018;-77
2021/07/11 10:44:20;;;;;;;4.70;4.30;;;;;;;;;;4988081;28;20116;-77
2021/07/11 10:47:00;;;;;;;5.68;4.68;;;;;;;;;;4989620;28;20097;-77
2021/07/11 10:49:32;;;;;;;4.75;4.35;;;;;;;;;;4988867;28;20028;-77
2021/07/11 10:52:01;;;;;;;5.72;5.13;;;;;;;;;;4987760;28;20027;-77
2021/07/11 10:54:28;;;;;;;7.35;5.75;;;;;;;;;;4989051;28;20034;-77
2021/07/11 10:57:02;;;;;;;5.15;4.68;;;;;;;;;;4989344;28;20037;-77
2021/07/11 10:59:33;;;;;;;7.90;5.38;;;;;;;;;;4989011;28;20086;-77
2021/07/11 11:02:00;;;;;;;4.80;4.30;;;;;;;;;;4989653;28;20026;-76
2021/07/11 11:04:27;;;;;;;6.80;5.07;;;;;;;;;;4989420;28;20054;-77
2021/07/11 11:06:53;;;;;;;5.68;4.53;;;;;;;;;;5023895;28;20034;-77
2021/07/11 11:09:43;;;;;;;7.13;4.32;;;;;;;;;;5007769;28;20038;-75
2021/07/11 11:12:29;;;;;;;5.10;4.35;;;;;;;;;;4993223;28;20647;-76
2021/07/11 11:15:00;;;;;;;9.10;4.63;;;;;;;;;;4993082;28;20023;-76
2021/07/11 11:17:36;;;;;;;6.95;4.65;;;;;;;;;;5023912;28;20032;-76
2021/07/11 11:20:07;;;;;;;6.40;4.03;;;;;;;;;;4992644;28;20022;-77
2021/07/11 11:22:33;;;;;;;3.38;3.08;;;;;;;;;;5023645;28;20018;-76
2021/07/11 11:25:00;;;;;;;11.07;8.43;;;;;;;;;;4991493;28;20478;-77
2021/07/11 11:27:33;;;;;;;6.20;3.70;;;;;;;;;;4992690;28;20105;-77
2021/07/11 11:30:09;;;;;;;4.32;3.42;;;;;;;;;;4993077;28;20083;-77
2021/07/11 11:32:35;;;;;;;3.50;3.20;;;;;;;;;;4991269;28;20134;-77
2021/07/11 11:35:01;;;;;;;4.75;3.15;;;;;;;;;;4991603;28;20117;-77
2021/07/11 11:37:27;;;;;;;6.10;3.78;;;;;;;;;;4992326;28;20766;-77
2021/07/11 11:39:53;;;;;;;5.97;3.50;;;;;;;;;;4990885;28;20031;-77
2021/07/11 11:42:21;;;;;;;3.40;3.10;;;;;;;;;;5007580;28;20018;-76
2021/07/11 11:44:47;;;;;;;7.97;3.05;;;;;;;;;;4992369;28;20045;-77
2021/07/11 11:47:12;;;;;;;4.97;3.22;;;;;;;;;;4992678;28;20022;-77
2021/07/11 11:49:41;;;;;;;5.07;3.38;;;;;;;;;;4992183;28;20018;-77
2021/07/11 11:52:07;;;;;;;3.85;3.45;;;;;;;;;;5023604;28;20054;-76
2021/07/11 11:54:37;;;;;;;6.07;3.20;;;;;;;;;;4990505;28;20030;-78
2021/07/11 11:57:06;;;;;;;7.85;5.90;;;;;;;;;;4991899;28;20042;-78
2021/07/11 11:59:32;;;;;;;31.40;6.68;;;;;;;;;;4991127;28;20132;-76
2021/07/11 12:02:00;;;;;;;28.45;4.25;;;;;;;;;;4991605;28;20490;-76
2021/07/11 12:04:27;;;;;;;8.88;3.75;;;;;;;;;;5023737;28;20125;-76
2021/07/11 12:06:54;;;;;;;3.28;2.83;;;;;;;;;;5006926;28;20434;-77
2021/07/11 12:09:26;;;;;;;73.63;8.25;;;;;;;;;;4991680;28;20026;-77
2021/07/11 12:11:57;;;;;;;7.97;3.35;;;;;;;;;;4990351;28;20030;-77
2021/07/11 12:14:24;;;;;;;4.20;3.50;;;;;;;;;;4991810;28;20023;-77
2021/07/11 12:17:00;;;;;;;2.83;2.53;;;;;;;;;;4990670;28;20034;-77
2021/07/11 12:19:26;;;;;;;19.33;4.07;;;;;;;;;;4991750;28;20083;-77
2021/07/11 12:21:53;;;;;;;6.97;3.08;;;;;;;;;;4990499;28;20066;-77
2021/07/11 12:24:23;;;;;;;12.63;3.80;;;;;;;;;;4991633;28;20022;-77
2021/07/11 12:26:56;;;;;;;10.73;2.95;;;;;;;;;;4991503;28;20137;-77
2021/07/11 12:29:32;;;;;;;3.60;3.00;;;;;;;;;;4991517;28;20037;-76
2021/07/11 12:31:59;;;;;;;4.25;2.92;;;;;;;;;;5006243;28;20026;-77
2021/07/11 12:34:25;;;;;;;7.03;3.25;;;;;;;;;;4990075;28;20033;-74
2021/07/11 12:36:53;;;;;;;2.92;2.60;;;;;;;;;;4991570;28;20026;-75
2021/07/11 12:39:21;;;;;;;3.55;3.25;;;;;;;;;;4990109;28;20029;-77
2021/07/11 12:41:47;;;;;;;6.43;3.63;;;;;;;;;;4991187;28;20125;-77
2021/07/11 12:44:16;;;;;;;8.82;3.00;;;;;;;;;;5006426;28;20030;-76
2021/07/11 12:46:41;;;;;;;6.15;3.30;;;;;;;;;;4991039;28;20080;-77
2021/07/11 12:49:09;;;;;;;11.93;3.38;;;;;;;;;;5005903;28;20434;-77
2021/07/11 12:51:37;;;;;;;7.28;3.17;;;;;;;;;;4990873;28;20034;-76
2021/07/11 12:54:15;;;;;;;3.88;3.22;;;;;;;;;;4990900;28;20065;-77
2021/07/11 12:56:52;;;;;;;7.63;3.65;;;;;;;;;;4990658;28;20030;-77
2021/07/11 12:59:45;;;;;;;5.28;3.70;;;;;;;;;;4989419;28;20050;-76
2021/07/11 13:02:24;;;;;;;8.13;4.70;;;;;;;;;;4990980;28;20026;-76
2021/07/11 13:04:58;;;;;;;30.02;9.35;;;;;;;;;;4991002;28;20019;-78
2021/07/11 13:07:28;;;;;;;9.07;6.60;;;;;;;;;;4991126;28;20034;-78
2021/07/11 13:09:55;;;;;;;9.82;6.15;;;;;;;;;;4990796;28;20557;-78
2021/07/11 13:12:21;;;;;;;8.18;5.38;;;;;;;;;;5021436;28;20113;-76
2021/07/11 13:15:03;;;;;;;6.10;5.53;;;;;;;;;;4990366;28;20117;-78
2021/07/11 13:17:30;;;;;;;8.77;6.10;;;;;;;;;;4990455;28;20382;-76
2021/07/11 13:19:58;;;;;;;6.75;5.53;;;;;;;;;;4990628;28;20482;-76
2021/07/11 13:22:28;;;;;;;10.32;6.70;;;;;;;;;;4990666;28;20092;-76
2021/07/11 13:24:56;;;;;;;5.93;5.32;;;;;;;;;;4991189;28;20049;-76
2021/07/11 13:27:23;;;;;;;4.88;4.45;;;;;;;;;;4989005;28;20026;-77
2021/07/11 13:29:49;;;;;;;7.07;4.55;;;;;;;;;;5004978;28;20042;-78
2021/07/11 13:32:16;;;;;;;5.05;4.55;;;;;;;;;;5021895;28;20030;-76
2021/07/11 13:34:42;;;;;;;6.15;4.50;;;;;;;;;;4988820;28;20022;-77
2021/07/11 13:37:08;;;;;;;5.13;4.55;;;;;;;;;;4990631;28;20032;-77
2021/07/11 13:39:34;;;;;;;4.68;4.28;;;;;;;;;;4990071;28;20030;-77
2021/07/11 13:41:59;;;;;;;7.18;4.72;;;;;;;;;;4990234;28;20030;-77
2021/07/11 13:44:25;;;;;;;4.95;4.43;;;;;;;;;;5005041;28;20122;-77
2021/07/11 13:46:50;;;;;;;7.00;4.55;;;;;;;;;;4989912;28;20029;-76
2021/07/11 13:49:16;;;;;;;5.07;4.57;;;;;;;;;;4988542;28;20034;-76
2021/07/11 13:51:42;;;;;;;5.25;4.57;;;;;;;;;;4988640;28;20057;-77
2021/07/11 13:54:08;;;;;;;5.90;4.57;;;;;;;;;;4989664;28;20058;-77
2021/07/11 13:56:33;;;;;;;5.28;4.78;;;;;;;;;;4989916;28;20022;-77
2021/07/11 13:58:59;;;;;;;6.30;5.40;;;;;;;;;;4990050;28;20050;-76
2021/07/11 14:01:24;;;;;;;7.07;4.65;;;;;;;;;;4988652;28;20426;-76
2021/07/11 14:03:50;;;;;;;5.25;4.53;;;;;;;;;;5021124;28;20050;-77
2021/07/11 14:06:17;;;;;;;6.22;4.40;;;;;;;;;;4989874;28;20489;-77
2021/07/11 14:08:42;;;;;;;5.95;4.88;;;;;;;;;;4989424;28;20100;-77
2021/07/11 14:11:09;;;;;;;7.38;5.30;;;;;;;;;;4989783;28;20479;-77
2021/07/11 14:13:35;;;;;;;6.13;4.38;;;;;;;;;;4989250;28;20037;-76
2021/07/11 14:16:00;;;;;;;6.20;4.72;;;;;;;;;;5021065;28;20030;-75
2021/07/11 14:18:26;;;;;;;6.63;5.15;;;;;;;;;;4989800;28;20101;-77
2021/07/11 14:20:51;;;;;;;5.50;5.00;;;;;;;;;;5004964;28;20505;-76
2021/07/11 14:23:17;;;;;;;8.23;4.53;;;;;;;;;;4988418;28;20046;-76
2021/07/11 14:25:44;;;;;;;8.15;5.63;;;;;;;;;;4989387;28;20022;-76
2021/07/11 14:28:10;;;;;;;5.40;4.90;;;;;;;;;;4990099;28;20108;-76
2021/07/11 14:30:37;;;;;;;7.38;5.05;;;;;;;;;;5004551;28;20108;-77
2021/07/11 14:33:05;;;;;;;5.78;4.70;;;;;;;;;;4989687;28;20026;-77
2021/07/11 14:35:32;;;;;;;12.45;4.97;;;;;;;;;;4988182;28;20026;-77
2021/07/11 14:37:57;;;;;;;5.32;4.82;;;;;;;;;;5004595;28;20483;-77
2021/07/11 14:40:23;;;;;;;5.55;4.97;;;;;;;;;;4990352;28;20081;-77
2021/07/11 14:42:49;;;;;;;6.13;5.18;;;;;;;;;;4993077;28;20481;-79